Time;durP1;ratioP1;P1;durP2;ratioP2;P2;SDS_P1;SDS_P2;PMS_P1;PMS_P2;Temp;Humidity;BMP_temperature;BMP_pressure;BME280_temperature;BME280_humidity;BME280_pressure;Samples;Min_cycle;Max_cycle;Signal;HPM_P1;HPM_P2
2023/04/29 06:30:50;;;;;;;12.95;11.68;;;13.60;99.90;;;;;;5071024;28;20164;-77
2023/04/29 06:33:15;;;;;;;13.18;12.00;;;13.80;99.90;;;;;;5070661;28;20233;-77
2023/04/29 06:35:41;;;;;;;18.75;17.15;;;14.00;99.90;;;;;;5070832;28;20182;-77
2023/04/29 06:38:09;;;;;;;18.17;16.40;;;14.20;99.90;;;;;;5069465;28;20555;-77
2023/04/29 06:40:35;;;;;;;9.43;8.35;;;14.50;99.90;;;;;;5069309;28;20178;-77
2023/04/29 06:43:01;;;;;;;10.57;6.60;;;14.60;99.90;;;;;;5060315;28;20196;-77
2023/04/29 06:45:27;;;;;;;7.90;7.18;;;14.60;99.90;;;;;;5052043;28;20229;-77
2023/04/29 06:47:53;;;;;;;7.65;6.95;;;14.50;99.90;;;;;;5049570;28;20205;-81
2023/04/29 06:50:19;;;;;;;9.05;8.25;;;14.40;99.90;;;;;;5049599;28;20174;-78
2023/04/29 06:52:44;;;;;;;9.35;6.43;;;14.20;99.90;;;;;;5050276;28;20181;-78
2023/04/29 06:55:10;;;;;;;9.27;8.38;;;14.10;99.90;;;;;;5049216;28;20528;-77
2023/04/29 06:57:55;;;;;;;11.73;10.73;;;14.00;99.90;;;;;;5050464;28;20198;-77
2023/04/29 07:00:21;;;;;;;9.75;8.85;;;13.90;99.90;;;;;;5050993;28;20170;-83
2023/04/29 07:02:47;;;;;;;8.27;7.25;;;13.80;99.90;;;;;;5050217;28;20182;-78
2023/04/29 07:05:12;;;;;;;10.57;7.03;;;13.70;99.90;;;;;;5050070;28;20549;-78
2023/04/29 07:07:38;;;;;;;7.70;6.68;;;13.70;99.90;;;;;;5049536;28;20285;-78
2023/04/29 07:10:04;;;;;;;7.55;6.55;;;13.80;99.90;;;;;;5050140;28;20206;-78
2023/04/29 07:12:29;;;;;;;8.05;7.35;;;13.90;99.90;;;;;;5050059;28;20560;-77
2023/04/29 07:15:00;;;;;;;7.22;6.63;;;14.00;99.90;;;;;;5050234;28;20186;-78
2023/04/29 07:17:55;;;;;;;7.85;7.05;;;14.20;99.90;;;;;;5050851;28;20194;-78
2023/04/29 07:20:24;;;;;;;8.85;8.05;;;14.30;99.90;;;;;;5055733;28;20178;-78
2023/04/29 07:22:49;;;;;;;8.23;7.53;;;14.40;99.90;;;;;;5070843;28;20181;-78
2023/04/29 07:25:15;;;;;;;10.68;8.52;;;14.30;99.90;;;;;;5069673;28;20202;-78
2023/04/29 07:27:47;;;;;;;9.52;8.13;;;14.30;99.90;;;;;;5068030;28;20577;-78
2023/04/29 07:30:13;;;;;;;10.95;9.40;;;14.20;99.90;;;;;;5054697;28;20210;-78
2023/04/29 07:33:00;;;;;;;10.52;9.52;;;14.10;99.90;;;;;;5049407;28;20208;-78
2023/04/29 07:35:26;;;;;;;10.38;9.38;;;14.00;99.90;;;;;;5050430;28;20198;-76
2023/04/29 07:37:54;;;;;;;10.93;9.07;;;13.80;99.90;;;;;;5049955;28;20204;-80
2023/04/29 07:40:20;;;;;;;10.43;9.10;;;13.80;99.90;;;;;;5035502;28;20206;-78
2023/04/29 07:46:17;;;;;;;12.25;10.80;;;13.70;99.90;;;;;;5037033;28;20206;-78
2023/04/29 07:48:42;;;;;;;6.82;6.22;;;13.70;99.90;;;;;;5035291;28;20179;-78
2023/04/29 07:51:13;;;;;;;8.90;8.05;;;13.60;99.90;;;;;;5035580;28;20181;-78
2023/04/29 07:53:39;;;;;;;89.28;74.05;;;13.60;99.90;;;;;;5036663;28;20166;-78
2023/04/29 07:56:07;;;;;;;10.10;9.13;;;13.60;99.90;;;;;;5035535;28;20211;-78
2023/04/29 07:59:05;;;;;;;73.00;58.13;;;13.40;99.90;;;;;;5050855;28;20178;-78
2023/04/29 08:02:17;;;;;;;21.67;17.50;;;13.40;99.90;;;;;;5056452;28;20676;-78
2023/04/29 08:04:42;;;;;;;80.70;67.28;;;13.40;99.90;;;;;;5035331;28;20262;-78
2023/04/29 08:07:08;;;;;;;27.27;24.73;;;13.40;99.90;;;;;;5035328;28;20229;-78
2023/04/29 08:09:34;;;;;;;11.40;10.40;;;13.50;99.90;;;;;;5045569;28;20208;-78
2023/04/29 08:12:01;;;;;;;6.53;6.03;;;13.60;99.90;;;;;;5035470;28;20182;-78
2023/04/29 08:14:35;;;;;;;9.20;8.35;;;13.90;99.90;;;;;;5035321;28;20182;-78
2023/04/29 08:17:00;;;;;;;9.43;8.60;;;14.10;99.90;;;;;;5035071;28;20256;-78
2023/04/29 08:19:26;;;;;;;11.77;10.77;;;14.20;99.90;;;;;;5036380;28;20253;-78
2023/04/29 08:21:51;;;;;;;8.35;7.65;;;14.30;99.90;;;;;;5039502;28;20669;-78
2023/04/29 08:24:17;;;;;;;4.70;4.40;;;14.20;99.90;;;;;;5038081;28;20183;-77
2023/04/29 08:26:42;;;;;;;6.22;5.55;;;14.00;99.90;;;;;;5042425;28;20248;-77
2023/04/29 08:29:08;;;;;;;29.75;9.88;;;13.70;99.90;;;;;;5052564;28;20189;-82
2023/04/29 08:31:33;;;;;;;9.02;6.57;;;13.50;99.90;;;;;;5034679;28;20167;-78
2023/04/29 08:33:59;;;;;;;8.57;7.78;;;13.30;99.90;;;;;;5035418;28;20237;-78
2023/04/29 08:36:27;;;;;;;13.75;12.40;;;13.10;99.90;;;;;;5034420;28;20203;-78
2023/04/29 08:38:53;;;;;;;12.18;10.98;;;13.00;99.90;;;;;;5034304;28;20174;-77
2023/04/29 08:41:19;;;;;;;8.63;7.80;;;12.90;99.90;;;;;;5034744;28;20175;-77
2023/04/29 08:43:45;;;;;;;8.07;6.40;;;12.90;99.90;;;;;;5041781;28;20233;-77
2023/04/29 08:46:11;;;;;;;13.68;12.35;;;13.00;99.90;;;;;;5042884;28;20229;-78
2023/04/29 08:48:40;;;;;;;9.05;8.35;;;13.00;99.90;;;;;;5041078;28;20194;-78
2023/04/29 08:51:07;;;;;;;8.27;7.47;;;13.00;99.90;;;;;;5043659;28;20174;-78
2023/04/29 08:53:32;;;;;;;11.38;7.72;;;13.10;99.90;;;;;;5044630;28;20189;-78
2023/04/29 08:56:20;;;;;;;9.30;8.40;;;13.20;99.90;;;;;;5048291;28;20219;-78
2023/04/29 08:58:46;;;;;;;9.85;9.00;;;13.30;99.90;;;;;;5034335;28;20217;-78
2023/04/29 09:01:13;;;;;;;12.43;11.18;;;13.30;99.90;;;;;;5034389;28;20273;-78
2023/04/29 09:04:07;;;;;;;9.25;8.35;;;13.40;99.90;;;;;;5034761;28;20187;-78
2023/04/29 09:06:33;;;;;;;9.45;8.40;;;13.40;99.90;;;;;;5032852;28;20211;-77
2023/04/29 09:09:00;;;;;;;7.32;6.60;;;13.60;99.90;;;;;;5034021;28;20620;-78
2023/04/29 09:11:27;;;;;;;4.43;4.13;;;13.60;99.90;;;;;;5042057;28;20186;-78
2023/04/29 09:13:59;;;;;;;10.32;4.47;;;13.80;99.90;;;;;;5048501;28;20193;-78
2023/04/29 09:16:24;;;;;;;4.30;3.90;;;13.70;99.90;;;;;;5060326;28;20214;-78
2023/04/29 09:19:30;;;;;;;6.75;4.97;;;13.80;99.90;;;;;;5062211;28;20181;-78
2023/04/29 09:25:18;;;;;;;8.65;5.60;;;13.70;99.90;;;;;;5058916;28;20280;-78
2023/04/29 09:27:44;;;;;;;3.70;3.40;;;13.70;99.90;;;;;;5073280;28;20256;-78
2023/04/29 09:30:11;;;;;;;4.47;3.45;;;13.60;99.90;;;;;;5073335;28;20213;-78
2023/04/29 09:32:37;;;;;;;3.80;3.50;;;13.60;99.90;;;;;;5054269;28;20185;-78
2023/04/29 09:35:25;;;;;;;4.75;3.45;;;13.60;99.90;;;;;;5044580;28;20179;-77
2023/04/29 09:37:53;;;;;;;4.10;3.80;;;13.50;99.90;;;;;;5033903;28;20171;-77
2023/04/29 09:40:31;;;;;;;4.57;4.18;;;13.30;99.90;;;;;;5033266;28;20179;-77
2023/04/29 09:42:58;;;;;;;5.13;4.28;;;13.40;99.90;;;;;;5033299;28;20178;-77
2023/04/29 09:45:37;;;;;;;4.25;3.85;;;13.30;99.90;;;;;;5045246;28;20281;-77
2023/04/29 09:48:07;;;;;;;5.18;4.78;;;13.30;99.90;;;;;;5033503;28;20178;-78
2023/04/29 09:50:36;;;;;;;4.30;4.00;;;13.40;99.90;;;;;;5041776;28;20179;-78
2023/04/29 09:53:02;;;;;;;4.47;4.07;;;13.60;99.90;;;;;;5041609;28;20464;-78
2023/04/29 09:55:28;;;;;;;4.68;4.13;;;13.80;99.90;;;;;;5041031;28;20214;-78
2023/04/29 09:57:54;;;;;;;4.00;3.70;;;14.00;99.90;;;;;;5034716;28;20262;-78
2023/04/29 10:00:20;;;;;;;3.92;3.53;;;14.30;99.90;;;;;;5034622;28;20190;-78
2023/04/29 10:02:47;;;;;;;4.93;3.55;;;14.60;99.90;;;;;;5050163;28;20187;-78
2023/04/29 10:05:13;;;;;;;3.70;3.38;;;14.70;99.90;;;;;;5033261;28;20641;-78
2023/04/29 10:07:39;;;;;;;3.88;3.47;;;15.00;99.90;;;;;;5031080;28;20206;-78
2023/04/29 10:10:07;;;;;;;3.38;3.15;;;15.00;99.90;;;;;;5031694;28;20604;-78
2023/04/29 10:12:34;;;;;;;5.28;2.97;;;15.30;99.90;;;;;;5031912;28;20178;-78
2023/04/29 10:15:06;;;;;;;3.38;3.17;;;15.60;99.90;;;;;;5032304;28;20209;-78
2023/04/29 10:17:53;;;;;;;3.58;3.25;;;15.80;99.90;;;;;;5032345;28;20194;-78
2023/04/29 10:20:25;;;;;;;3.45;3.15;;;15.90;99.90;;;;;;5034221;28;20173;-78
2023/04/29 10:22:53;;;;;;;3.80;3.50;;;16.10;99.90;;;;;;5033338;28;20163;-78
2023/04/29 10:25:21;;;;;;;3.60;3.30;;;16.00;99.90;;;;;;5033153;28;20195;-77
2023/04/29 10:27:47;;;;;;;3.97;3.22;;;15.90;99.90;;;;;;5032940;28;20289;-77
2023/04/29 10:30:17;;;;;;;3.58;2.90;;;16.00;99.90;;;;;;5034393;28;20158;-78
2023/04/29 10:32:44;;;;;;;4.57;2.90;;;15.90;99.90;;;;;;5037561;28;20190;-78
2023/04/29 10:35:13;;;;;;;3.90;3.50;;;15.90;99.90;;;;;;5050183;28;20247;-77
2023/04/29 10:37:40;;;;;;;3.33;3.03;;;15.80;99.90;;;;;;5053989;28;20190;-79
2023/04/29 10:40:17;;;;;;;4.45;3.05;;;15.80;99.90;;;;;;5054458;28;20654;-78
2023/04/29 10:42:56;;;;;;;2.67;2.40;;;15.70;99.90;;;;;;5054184;28;20537;-78
2023/04/29 10:45:35;;;;;;;5.07;3.20;;;15.70;99.90;;;;;;5054327;28;20173;-79
2023/04/29 10:48:01;;;;;;;3.17;2.97;;;15.80;99.90;;;;;;5053845;28;20204;-79
2023/04/29 10:50:28;;;;;;;3.15;2.90;;;15.90;99.90;;;;;;5053650;28;20202;-79
2023/04/29 10:52:54;;;;;;;3.15;2.90;;;16.10;99.90;;;;;;5055228;28;20185;-79
2023/04/29 10:55:22;;;;;;;3.28;2.85;;;16.20;99.90;;;;;;5053772;28;20237;-78
2023/04/29 10:57:48;;;;;;;3.95;3.00;;;15.90;99.90;;;;;;5053090;28;20198;-78
2023/04/29 11:00:28;;;;;;;3.10;2.90;;;15.90;99.90;;;;;;5052338;28;20220;-78
2023/04/29 11:02:54;;;;;;;2.78;2.35;;;16.00;99.90;;;;;;5053397;28;20180;-79
2023/04/29 11:05:36;;;;;;;3.35;3.05;;;16.10;99.60;;;;;;5052336;28;20177;-78
2023/04/29 11:08:22;;;;;;;2.75;2.55;;;16.00;99.90;;;;;;5052337;28;20572;-77
2023/04/29 11:10:53;;;;;;;3.88;2.80;;;16.00;99.90;;;;;;5052733;28;20179;-78
2023/04/29 11:14:10;;;;;;;4.47;2.92;;;16.00;99.90;;;;;;5055096;28;20170;-78
2023/04/29 11:16:37;;;;;;;21.25;12.45;;;16.10;99.90;;;;;;5057151;28;20229;-78
2023/04/29 11:19:23;;;;;;;47.72;25.30;;;15.90;99.90;;;;;;5056439;28;20174;-78
2023/04/29 11:22:24;;;;;;;3.83;3.45;;;16.30;99.90;;;;;;5056430;28;20575;-79
2023/04/29 11:25:10;;;;;;;2.70;2.50;;;16.20;99.40;;;;;;5055854;28;20189;-79
2023/04/29 11:27:41;;;;;;;3.20;2.92;;;16.50;98.80;;;;;;5058508;28;20210;-79
2023/04/29 11:30:10;;;;;;;2.80;2.58;;;16.70;98.60;;;;;;5057866;28;20604;-80
2023/04/29 11:35:57;;;;;;;6.10;3.17;;;17.20;97.50;;;;;;5058007;28;20719;-79
2023/04/29 11:38:27;;;;;;;4.53;3.53;;;17.20;96.70;;;;;;5055365;28;20174;-78
2023/04/29 11:40:55;;;;;;;6.93;3.00;;;17.50;96.60;;;;;;5055120;28;20178;-78
2023/04/29 11:43:22;;;;;;;6.30;2.60;;;17.20;95.70;;;;;;5056105;28;20197;-77
2023/04/29 11:45:48;;;;;;;3.00;2.80;;;17.20;96.20;;;;;;5055640;28;20202;-77
2023/04/29 11:48:21;;;;;;;3.20;3.00;;;17.10;96.40;;;;;;5055670;28;20182;-77
2023/04/29 11:51:34;;;;;;;3.55;3.00;;;17.20;96.10;;;;;;5053807;28;20592;-77
2023/04/29 11:54:00;;;;;;;3.80;3.50;;;17.40;95.50;;;;;;5050280;28;20178;-77
2023/04/29 11:56:25;;;;;;;3.55;3.25;;;17.40;94.90;;;;;;5036404;28;20210;-77
2023/04/29 11:58:56;;;;;;;3.60;3.30;;;17.40;95.00;;;;;;5035508;28;20258;-77
2023/04/29 12:01:22;;;;;;;3.70;3.20;;;17.70;94.70;;;;;;5035435;28;20185;-77
2023/04/29 12:03:49;;;;;;;4.10;3.70;;;17.60;94.80;;;;;;5035671;28;20619;-77
2023/04/29 12:06:15;;;;;;;3.83;3.53;;;17.40;94.20;;;;;;5035435;28;20202;-77
2023/04/29 12:08:40;;;;;;;3.72;3.30;;;17.30;94.60;;;;;;5035179;28;20664;-78
2023/04/29 12:11:06;;;;;;;3.65;3.35;;;17.10;94.50;;;;;;5034708;28;20175;-78
2023/04/29 12:13:35;;;;;;;3.67;3.33;;;16.80;95.10;;;;;;5034319;28;20171;-78
2023/04/29 12:16:01;;;;;;;3.60;3.30;;;16.80;95.50;;;;;;5034193;28;20214;-78
2023/04/29 12:21:51;;;;;;;3.88;3.25;;;16.70;95.10;;;;;;5055503;28;20166;-78
2023/04/29 12:24:19;;;;;;;7.43;3.63;;;16.80;95.60;;;;;;5054067;28;20205;-78
2023/04/29 12:26:45;;;;;;;4.68;3.50;;;16.80;94.90;;;;;;5055629;28;20622;-78
2023/04/29 12:29:12;;;;;;;3.80;3.50;;;16.70;94.70;;;;;;5054224;28;20185;-77
2023/04/29 12:31:38;;;;;;;5.75;3.83;;;16.50;95.00;;;;;;5054490;28;20182;-78
2023/04/29 12:34:04;;;;;;;3.72;3.47;;;16.40;95.10;;;;;;5054077;28;20181;-78
2023/04/29 12:36:31;;;;;;;3.97;3.58;;;16.40;95.20;;;;;;5055165;28;20240;-82
2023/04/29 12:38:58;;;;;;;6.00;3.83;;;16.00;95.30;;;;;;5055509;28;20174;-77
2023/04/29 12:41:53;;;;;;;3.72;3.42;;;16.00;95.80;;;;;;5054313;28;20202;-77
2023/04/29 12:44:19;;;;;;;4.10;3.78;;;16.00;95.70;;;;;;5053015;28;20602;-78
2023/04/29 12:46:45;;;;;;;4.18;3.88;;;15.90;95.90;;;;;;5054346;28;20194;-78
2023/04/29 12:49:23;;;;;;;4.15;3.85;;;15.90;95.70;;;;;;5055890;28;20209;-78
2023/04/29 12:51:48;;;;;;;6.05;4.75;;;15.70;96.00;;;;;;5053749;28;20177;-78
2023/04/29 12:54:23;;;;;;;4.40;4.00;;;15.60;96.20;;;;;;5053609;28;20174;-79
2023/04/29 12:56:49;;;;;;;6.82;4.15;;;15.70;96.10;;;;;;5053474;28;20217;-78
2023/04/29 12:59:32;;;;;;;4.38;3.97;;;15.60;96.20;;;;;;5053501;28;20236;-77
2023/04/29 13:01:57;;;;;;;6.93;4.03;;;15.50;96.30;;;;;;5054724;28;20236;-77
2023/04/29 13:04:23;;;;;;;6.85;4.07;;;15.50;96.00;;;;;;5053360;28;20530;-77
2023/04/29 13:06:53;;;;;;;4.05;3.47;;;15.50;95.90;;;;;;5053256;28;20226;-77
2023/04/29 13:09:18;;;;;;;4.05;3.30;;;15.20;95.80;;;;;;5053539;28;20182;-77
2023/04/29 13:11:44;;;;;;;3.58;3.28;;;15.20;95.60;;;;;;5053259;28;20775;-77
2023/04/29 13:14:10;;;;;;;5.35;3.83;;;15.20;95.70;;;;;;5053848;28;20174;-78
2023/04/29 13:16:35;;;;;;;4.65;3.88;;;15.00;96.10;;;;;;5055259;28;20255;-77
2023/04/29 13:19:01;;;;;;;4.25;3.70;;;15.00;96.30;;;;;;5053720;28;20264;-77
2023/04/29 13:21:45;;;;;;;4.03;3.72;;;14.90;95.70;;;;;;5053411;28;20269;-77
2023/04/29 13:24:11;;;;;;;4.18;3.78;;;15.10;95.60;;;;;;5054676;28;20154;-78
2023/04/29 13:26:37;;;;;;;6.32;4.22;;;15.10;95.70;;;;;;5053301;28;20217;-77
2023/04/29 13:29:25;;;;;;;4.60;4.20;;;15.20;96.00;;;;;;5054693;28;20261;-77
2023/04/29 13:31:51;;;;;;;4.57;3.92;;;15.40;95.30;;;;;;5053713;28;20178;-77
2023/04/29 13:34:16;;;;;;;5.05;4.53;;;15.30;95.40;;;;;;5052956;28;20190;-77
2023/04/29 13:36:47;;;;;;;5.68;4.72;;;15.10;95.40;;;;;;5054087;28;20214;-71
2023/04/29 13:39:13;;;;;;;5.07;4.65;;;15.20;95.70;;;;;;5053543;28;20170;-71
2023/04/29 13:41:38;;;;;;;5.25;4.78;;;15.30;95.50;;;;;;5053623;28;20530;-71
2023/04/29 13:44:04;;;;;;;6.13;4.88;;;15.50;95.50;;;;;;5052711;28;20174;-71
2023/04/29 13:46:31;;;;;;;5.20;4.70;;;15.50;95.50;;;;;;5052891;28;20202;-71
2023/04/29 13:48:57;;;;;;;4.85;4.45;;;15.50;95.20;;;;;;5053991;28;20283;-71
2023/04/29 13:51:22;;;;;;;7.22;4.78;;;15.60;95.60;;;;;;5052787;28;20640;-71
2023/04/29 13:53:48;;;;;;;5.22;4.72;;;15.70;95.40;;;;;;5052525;28;20188;-72
2023/04/29 13:56:15;;;;;;;5.93;5.28;;;15.70;95.10;;;;;;5053477;28;20260;-72
2023/04/29 13:58:40;;;;;;;6.85;5.32;;;15.70;95.00;;;;;;5052710;28;20182;-72
2023/04/29 14:01:06;;;;;;;5.68;5.07;;;15.70;95.20;;;;;;5053681;28;20173;-72
2023/04/29 14:03:32;;;;;;;7.20;5.90;;;15.60;95.30;;;;;;5053178;28;20209;-71
2023/04/29 14:06:20;;;;;;;6.47;5.88;;;15.50;95.70;;;;;;5052902;28;20224;-72
2023/04/29 14:08:46;;;;;;;7.68;6.47;;;15.30;95.80;;;;;;5052623;28;20174;-71
2023/04/29 14:11:11;;;;;;;9.60;7.07;;;15.30;96.30;;;;;;5052441;28;20189;-71
2023/04/29 14:13:45;;;;;;;8.10;7.13;;;15.20;96.50;;;;;;5053589;28;20245;-71
2023/04/29 14:16:11;;;;;;;10.00;8.68;;;15.10;96.30;;;;;;5052295;28;20560;-72
2023/04/29 14:18:36;;;;;;;10.45;9.43;;;14.90;96.60;;;;;;5052229;28;20177;-72
2023/04/29 14:21:02;;;;;;;10.30;9.30;;;14.80;96.60;;;;;;5053510;28;20178;-72
2023/04/29 14:23:27;;;;;;;10.68;9.52;;;14.80;97.20;;;;;;5054911;28;20174;-73
2023/04/29 14:25:53;;;;;;;10.80;9.57;;;14.90;97.20;;;;;;5056368;28;20620;-73
2023/04/29 14:28:18;;;;;;;10.15;9.00;;;14.90;97.10;;;;;;5056221;28;20178;-74
2023/04/29 14:30:44;;;;;;;9.82;8.82;;;15.10;97.10;;;;;;5055672;28;20185;-74
2023/04/29 14:33:10;;;;;;;10.88;9.60;;;15.30;96.80;;;;;;5056606;28;20257;-74
2023/04/29 14:35:35;;;;;;;12.23;9.00;;;15.40;96.00;;;;;;5054799;28;20251;-73
2023/04/29 14:38:01;;;;;;;11.18;8.60;;;15.30;96.10;;;;;;5056367;28;20667;-74
2023/04/29 14:40:26;;;;;;;11.18;9.20;;;15.50;96.00;;;;;;5055372;28;20185;-74
2023/04/29 14:42:52;;;;;;;9.65;8.75;;;15.60;95.70;;;;;;5055777;28;20224;-74
2023/04/29 14:45:17;;;;;;;9.50;8.57;;;15.60;95.30;;;;;;5055538;28;20179;-73
2023/04/29 14:47:45;;;;;;;11.73;8.98;;;15.80;95.40;;;;;;5057522;28;20581;-73
2023/04/29 14:50:24;;;;;;;10.25;9.13;;;15.80;95.20;;;;;;5057906;28;20170;-73
2023/04/29 14:53:09;;;;;;;9.98;8.25;;;15.70;94.60;;;;;;5057454;28;20154;-73
2023/04/29 14:55:34;;;;;;;9.45;8.52;;;15.50;94.50;;;;;;5055771;28;20230;-72
2023/04/29 14:58:03;;;;;;;9.00;8.10;;;15.20;95.10;;;;;;5057009;28;20201;-73
2023/04/29 15:00:29;;;;;;;10.00;9.10;;;15.30;95.70;;;;;;5057511;28;20189;-72
2023/04/29 15:03:34;;;;;;;9.88;8.65;;;15.20;95.40;;;;;;5055725;28;20174;-72
2023/04/29 15:06:02;;;;;;;9.68;8.48;;;15.20;95.40;;;;;;5055480;28;20702;-72
2023/04/29 15:08:28;;;;;;;9.82;8.85;;;15.20;95.70;;;;;;5055608;28;20186;-72
2023/04/29 15:10:53;;;;;;;9.00;8.10;;;15.20;96.00;;;;;;5049842;28;20287;-72
2023/04/29 15:16:41;;;;;;;10.32;9.32;;;15.20;95.80;;;;;;5036757;28;20241;-72
2023/04/29 15:19:06;;;;;;;9.38;8.57;;;15.20;95.90;;;;;;5035389;28;20202;-72
2023/04/29 15:21:33;;;;;;;10.18;9.27;;;15.10;95.90;;;;;;5036360;28;20185;-71
2023/04/29 15:24:10;;;;;;;10.60;9.55;;;15.00;95.90;;;;;;5035644;28;20668;-72
2023/04/29 15:26:35;;;;;;;10.88;9.80;;;15.10;96.30;;;;;;5035251;28;20253;-72
2023/04/29 15:29:02;;;;;;;10.38;9.48;;;14.90;96.20;;;;;;5037370;28;20175;-72
2023/04/29 15:31:38;;;;;;;10.68;9.57;;;14.90;96.70;;;;;;5036014;28;20179;-72
2023/04/29 15:34:03;;;;;;;11.23;9.23;;;14.90;96.40;;;;;;5035845;28;20186;-71
2023/04/29 15:36:32;;;;;;;12.63;9.55;;;15.00;96.30;;;;;;5036567;28;20237;-72
2023/04/29 15:38:57;;;;;;;10.07;9.23;;;15.10;96.20;;;;;;5035142;28;20175;-72
2023/04/29 15:41:27;;;;;;;10.07;9.13;;;15.10;96.10;;;;;;5035338;28;20517;-71
2023/04/29 15:43:53;;;;;;;10.10;9.20;;;15.10;95.60;;;;;;5035015;28;20217;-71
2023/04/29 15:46:20;;;;;;;10.52;9.40;;;15.10;95.70;;;;;;5034846;28;20191;-72
2023/04/29 15:48:45;;;;;;;11.43;9.23;;;15.10;95.10;;;;;;5035138;28;20199;-72
2023/04/29 15:51:13;;;;;;;10.18;9.10;;;15.00;95.40;;;;;;5034878;28;20214;-72
2023/04/29 15:53:44;;;;;;;10.52;9.45;;;15.00;95.60;;;;;;5035767;28;20182;-72
2023/04/29 15:56:46;;;;;;;10.10;8.90;;;14.90;95.40;;;;;;5034961;28;20685;-71
2023/04/29 15:59:12;;;;;;;9.57;8.65;;;14.80;95.60;;;;;;5034534;28;20644;-71
2023/04/29 16:01:37;;;;;;;10.40;8.88;;;14.80;95.90;;;;;;5035798;28;20187;-75
2023/04/29 16:04:03;;;;;;;9.73;8.82;;;14.70;96.00;;;;;;5034867;28;20186;-72
2023/04/29 16:07:16;;;;;;;10.13;8.98;;;14.60;96.10;;;;;;5034785;28;20202;-72
2023/04/29 16:09:42;;;;;;;9.80;8.82;;;14.60;96.40;;;;;;5036032;28;20246;-72
2023/04/29 16:12:10;;;;;;;9.15;8.40;;;14.50;96.60;;;;;;5034824;28;20266;-72
2023/04/29 16:14:36;;;;;;;11.15;9.20;;;14.50;96.70;;;;;;5035343;28;20202;-72
2023/04/29 16:20:24;;;;;;;9.68;8.77;;;14.20;96.80;;;;;;5035832;28;20166;-72
2023/04/29 16:26:12;;;;;;;9.60;8.70;;;13.90;97.10;;;;;;5035563;28;20222;-72
2023/04/29 16:28:39;;;;;;;11.95;9.30;;;13.80;97.40;;;;;;5034103;28;20175;-72
2023/04/29 16:31:05;;;;;;;10.27;9.32;;;13.80;98.00;;;;;;5034214;28;20167;-72
2023/04/29 16:33:31;;;;;;;9.30;8.50;;;13.70;97.60;;;;;;5035415;28;20155;-72
2023/04/29 16:36:50;;;;;;;9.52;8.63;;;13.70;97.90;;;;;;5034350;28;20628;-72
2023/04/29 16:39:16;;;;;;;11.18;8.52;;;13.70;98.00;;;;;;5035105;28;20171;-72
2023/04/29 16:41:42;;;;;;;9.57;8.63;;;13.70;97.90;;;;;;5034396;28;20179;-72
2023/04/29 16:44:08;;;;;;;9.30;8.40;;;13.80;97.70;;;;;;5034278;28;20190;-72
2023/04/29 16:46:33;;;;;;;9.60;8.63;;;13.80;97.20;;;;;;5033692;28;20671;-72
2023/04/29 16:48:59;;;;;;;10.70;8.13;;;13.80;97.30;;;;;;5033774;28;20190;-72
2023/04/29 16:51:26;;;;;;;8.98;8.18;;;13.80;97.10;;;;;;5034889;28;20190;-72
2023/04/29 16:53:52;;;;;;;9.25;8.43;;;13.80;97.30;;;;;;5033770;28;20646;-72
2023/04/29 16:56:18;;;;;;;8.95;8.15;;;13.80;97.50;;;;;;5033438;28;20214;-72
2023/04/29 16:58:43;;;;;;;8.95;8.13;;;13.70;97.20;;;;;;5034546;28;20225;-78
2023/04/29 17:01:10;;;;;;;7.85;7.15;;;13.70;97.40;;;;;;5033965;28;20549;-72
2023/04/29 17:03:50;;;;;;;8.55;7.75;;;13.70;97.30;;;;;;5033512;28;20179;-72
2023/04/29 17:06:33;;;;;;;7.95;7.20;;;13.70;97.00;;;;;;5033445;28;20195;-72
2023/04/29 17:09:24;;;;;;;8.68;7.20;;;13.60;96.90;;;;;;5033329;28;20171;-72
2023/04/29 17:12:27;;;;;;;7.75;7.00;;;13.60;96.90;;;;;;5034596;28;20239;-72
2023/04/29 17:14:56;;;;;;;11.85;7.72;;;13.60;97.20;;;;;;5034360;28;20201;-72
2023/04/29 17:17:21;;;;;;;8.55;7.70;;;13.60;98.20;;;;;;5033503;28;20230;-72
2023/04/29 17:19:48;;;;;;;8.45;7.60;;;13.70;98.00;;;;;;5034577;28;20174;-73
2023/04/29 17:22:15;;;;;;;8.57;7.78;;;13.70;98.20;;;;;;5036781;28;20181;-73
2023/04/29 17:24:43;;;;;;;8.20;7.50;;;13.60;97.40;;;;;;5036900;28;20179;-74
2023/04/29 17:27:09;;;;;;;11.85;6.93;;;13.50;97.70;;;;;;5035921;28;20241;-74
2023/04/29 17:29:35;;;;;;;8.45;7.30;;;13.40;97.90;;;;;;5036372;28;20190;-74
2023/04/29 17:32:08;;;;;;;9.85;7.13;;;13.40;97.70;;;;;;5036162;28;20194;-74
2023/04/29 17:34:35;;;;;;;12.55;7.70;;;13.30;98.00;;;;;;5036469;28;20266;-76
2023/04/29 17:37:01;;;;;;;8.02;7.22;;;13.30;97.90;;;;;;5035986;28;20565;-75
2023/04/29 17:39:27;;;;;;;8.23;7.10;;;13.20;98.00;;;;;;5035636;28;20170;-77
2023/04/29 17:41:55;;;;;;;9.02;7.97;;;13.20;98.10;;;;;;5035530;28;20201;-74
2023/04/29 17:44:21;;;;;;;8.10;7.40;;;13.10;98.40;;;;;;5035752;28;20170;-74
2023/04/29 17:46:47;;;;;;;8.85;7.63;;;13.10;98.60;;;;;;5035475;28;20198;-74
2023/04/29 17:49:23;;;;;;;9.10;7.00;;;13.10;98.90;;;;;;5033917;28;20210;-74
2023/04/29 17:51:49;;;;;;;8.45;7.57;;;13.10;98.70;;;;;;5034172;28;20185;-73
2023/04/29 17:54:14;;;;;;;8.25;7.55;;;13.00;98.90;;;;;;5033696;28;20183;-74
2023/04/29 17:56:40;;;;;;;8.23;7.53;;;12.90;98.90;;;;;;5034460;28;20220;-74
2023/04/29 17:59:07;;;;;;;10.25;8.02;;;12.80;99.10;;;;;;5035633;28;20167;-84
2023/04/29 18:01:33;;;;;;;9.10;8.07;;;12.80;99.10;;;;;;5034008;28;20171;-74
2023/04/29 18:03:58;;;;;;;8.32;7.63;;;12.80;99.00;;;;;;5034899;28;20183;-73
2023/04/29 18:06:24;;;;;;;8.02;7.22;;;12.80;99.20;;;;;;5032895;28;20253;-73
2023/04/29 18:09:04;;;;;;;9.43;7.80;;;12.70;99.30;;;;;;5033451;28;20269;-73
2023/04/29 18:11:30;;;;;;;8.35;7.63;;;12.80;99.40;;;;;;5032517;28;20163;-73
2023/04/29 18:13:57;;;;;;;8.85;7.97;;;12.70;99.40;;;;;;5033250;28;20209;-74
2023/04/29 18:16:23;;;;;;;9.30;7.90;;;12.70;99.30;;;;;;5052567;28;20202;-74
2023/04/29 18:18:52;;;;;;;9.15;7.95;;;12.60;99.40;;;;;;5054222;28;20170;-74
2023/04/29 18:21:26;;;;;;;8.60;7.60;;;12.60;99.60;;;;;;5056410;28;20245;-74
2023/04/29 18:24:21;;;;;;;8.73;7.93;;;12.50;99.80;;;;;;5054622;28;20177;-73
2023/04/29 18:26:46;;;;;;;9.75;8.77;;;12.50;99.70;;;;;;5052128;28;20218;-73
2023/04/29 18:32:34;;;;;;;9.35;8.45;;;12.50;99.80;;;;;;5053659;28;20189;-73
2023/04/29 18:35:00;;;;;;;10.40;8.25;;;12.40;99.80;;;;;;5052296;28;20170;-73
2023/04/29 18:37:25;;;;;;;9.18;8.30;;;12.40;99.90;;;;;;5052316;28;20649;-73
2023/04/29 18:39:51;;;;;;;9.23;8.43;;;12.40;99.70;;;;;;5052786;28;20178;-73
2023/04/29 18:42:25;;;;;;;9.52;8.60;;;12.30;99.90;;;;;;5053638;28;20566;-72
2023/04/29 18:45:10;;;;;;;11.63;8.63;;;12.30;99.90;;;;;;5048574;28;20189;-72
2023/04/29 18:47:35;;;;;;;12.45;8.82;;;12.40;99.90;;;;;;5048889;28;20286;-72
2023/04/29 18:50:02;;;;;;;12.95;9.55;;;12.30;99.90;;;;;;5048574;28;20202;-72
2023/04/29 18:52:28;;;;;;;9.38;8.38;;;12.30;99.90;;;;;;5052832;28;20178;-72
2023/04/29 18:54:54;;;;;;;9.90;8.90;;;12.30;99.90;;;;;;5053241;28;20224;-72
2023/04/29 18:57:19;;;;;;;10.50;8.80;;;12.30;99.90;;;;;;5051685;28;20296;-72
2023/04/29 18:59:45;;;;;;;11.05;8.23;;;12.30;99.90;;;;;;5052326;28;20184;-72
2023/04/29 19:03:05;;;;;;;9.32;8.40;;;12.30;99.90;;;;;;5052500;28;20554;-72
2023/04/29 19:05:31;;;;;;;9.75;8.75;;;12.30;99.70;;;;;;5051937;28;20249;-72
2023/04/29 19:07:56;;;;;;;8.40;7.70;;;12.20;99.90;;;;;;5050518;28;20691;-72
2023/04/29 19:10:34;;;;;;;9.07;8.20;;;12.30;99.90;;;;;;5051994;28;20183;-72
2023/04/29 19:13:00;;;;;;;9.07;8.20;;;12.20;99.60;;;;;;5052643;28;20188;-72
2023/04/29 19:15:26;;;;;;;9.48;8.57;;;12.20;99.80;;;;;;5051736;28;20265;-72
2023/04/29 19:17:53;;;;;;;8.27;7.50;;;12.10;99.30;;;;;;5053156;28;20169;-72
2023/04/29 19:20:47;;;;;;;10.18;8.45;;;12.10;99.40;;;;;;5053078;28;20269;-72
2023/04/29 19:23:13;;;;;;;9.25;8.13;;;12.10;99.40;;;;;;5052424;28;20328;-72
2023/04/29 19:25:38;;;;;;;10.15;9.25;;;12.00;99.60;;;;;;5051431;28;20704;-72
2023/04/29 19:28:04;;;;;;;10.20;8.52;;;12.00;99.90;;;;;;5053183;28;20589;-72
2023/04/29 19:30:29;;;;;;;9.88;8.45;;;12.00;99.90;;;;;;5051791;28;20182;-72
2023/04/29 19:32:57;;;;;;;9.45;8.45;;;12.00;99.90;;;;;;5051904;28;20273;-72
2023/04/29 19:35:23;;;;;;;9.80;8.90;;;12.00;99.90;;;;;;5055093;28;20263;-72
2023/04/29 19:37:48;;;;;;;11.82;9.13;;;12.00;99.90;;;;;;5055074;28;20648;-72
2023/04/29 19:40:14;;;;;;;11.45;9.07;;;12.00;99.90;;;;;;5055084;28;20261;-72
2023/04/29 19:42:40;;;;;;;10.13;9.13;;;12.00;99.90;;;;;;5055217;28;20212;-72
2023/04/29 19:45:06;;;;;;;11.38;8.98;;;12.00;99.90;;;;;;5055198;28;20228;-72
2023/04/29 19:47:32;;;;;;;9.60;8.75;;;11.90;99.90;;;;;;5056350;28;20311;-72
2023/04/29 19:49:58;;;;;;;10.27;9.27;;;11.90;99.90;;;;;;5056057;28;20192;-72
2023/04/29 19:52:25;;;;;;;11.82;10.60;;;11.90;99.90;;;;;;5054809;28;20528;-72
2023/04/29 19:54:51;;;;;;;14.93;13.25;;;11.90;99.90;;;;;;5056352;28;20695;-72